Time;durP1;ratioP1;P1;durP2;ratioP2;P2;SDS_P1;SDS_P2;PMS_P1;PMS_P2;Temp;Humidity;BMP_temperature;BMP_pressure;BME280_temperature;BME280_humidity;BME280_pressure;Samples;Min_cycle;Max_cycle;Signal;HPM_P1;HPM_P2
2022/04/20 17:01:12;;;;;;;6.47;3.50;;;;;;;17.64;30.27;99035.81;351117;27;20794;-68
2022/04/20 17:01:24;;;;;;;5.55;3.50;;;;;;;18.60;29.67;99040.22;352766;28;1088;-68
2022/04/20 17:01:37;;;;;;;6.75;3.35;;;;;;;19.24;28.78;99035.28;349401;27;1579;-68
2022/04/20 17:01:49;;;;;;;6.43;3.10;;;;;;;19.71;27.40;99043.03;343285;28;17007;-69
2022/04/20 17:02:07;;;;;;;6.13;3.00;;;;;;;20.18;26.52;99040.97;347263;28;1919;-69
2022/04/20 17:02:19;;;;;;;4.90;2.70;;;;;;;20.51;25.60;99047.09;348746;28;1946;-72
2022/04/20 17:02:32;;;;;;;4.75;3.00;;;;;;;20.82;25.48;99037.44;347764;28;2159;-74
2022/04/20 17:02:45;;;;;;;6.55;3.10;;;;;;;21.02;25.06;99037.53;346999;28;2383;-70
2022/04/20 17:02:57;;;;;;;8.38;3.10;;;;;;;21.26;24.62;99039.88;347638;28;2209;-70
2022/04/20 17:03:12;;;;;;;7.43;3.08;;;;;;;21.43;24.46;99038.41;346277;28;2443;-69
2022/04/20 17:03:24;;;;;;;5.20;2.97;;;;;;;21.36;23.35;99032.81;345128;28;1038;-70
2022/04/20 17:03:37;;;;;;;5.82;2.95;;;;;;;21.50;23.82;99040.41;344752;28;1251;-70
2022/04/20 17:03:49;;;;;;;8.98;3.33;;;;;;;21.70;23.31;99043.09;345454;28;2890;-69
2022/04/20 17:04:01;;;;;;;9.80;3.33;;;;;;;21.85;23.50;99036.47;343593;28;2890;-69
2022/04/20 17:04:13;;;;;;;7.80;3.13;;;;;;;21.97;23.45;99041.59;343522;28;2676;-70
2022/04/20 17:04:26;;;;;;;6.85;3.00;;;;;;;22.04;23.20;99037.44;343687;28;1275;-70
2022/04/20 17:04:38;;;;;;;5.45;3.20;;;;;;;22.13;23.14;99040.09;346143;28;1161;-70
2022/04/20 17:04:50;;;;;;;5.03;3.15;;;;;;;22.22;22.64;99035.78;345779;28;1830;-70
2022/04/20 17:05:03;;;;;;;4.45;2.92;;;;;;;22.28;22.76;99045.84;343308;28;1727;-70
2022/04/20 17:05:15;;;;;;;5.35;2.95;;;;;;;22.38;22.41;99042.38;344227;28;1228;-70
2022/04/20 17:05:27;;;;;;;6.03;3.17;;;;;;;22.47;22.36;99038.84;344357;28;1764;-70
2022/04/20 17:05:44;;;;;;;5.68;3.28;;;;;;;22.64;22.52;99038.16;345449;28;1881;-70
2022/04/20 17:05:56;;;;;;;5.03;3.13;;;;;;;22.67;22.34;99040.50;344738;28;1704;-70
2022/04/20 17:06:08;;;;;;;5.47;3.03;;;;;;;22.74;22.35;99044.25;344021;28;2038;-70
2022/04/20 17:06:21;;;;;;;5.70;3.00;;;;;;;22.72;22.02;99043.56;344935;28;1180;-70
2022/04/20 17:06:33;;;;;;;5.00;2.92;;;;;;;22.85;21.77;99042.41;346597;28;1357;-70
2022/04/20 17:06:45;;;;;;;3.83;2.85;;;;;;;22.90;22.13;99040.19;347693;28;1318;-70
2022/04/20 17:06:59;;;;;;;4.07;2.85;;;;;;;22.97;21.42;99043.09;345325;28;1622;-70
2022/04/20 17:07:11;;;;;;;4.72;2.80;;;;;;;23.02;21.45;99043.50;344581;28;1598;-70
2022/04/20 17:07:24;;;;;;;4.90;2.90;;;;;;;22.94;21.63;99041.56;346118;28;1098;-70
2022/04/20 17:07:36;;;;;;;4.45;2.83;;;;;;;22.74;21.15;99046.09;344861;28;1026;-70
2022/04/20 17:07:48;;;;;;;4.25;2.90;;;;;;;22.85;20.70;99042.41;344928;28;1195;-70
2022/04/20 17:08:02;;;;;;;5.53;2.95;;;;;;;22.97;20.82;99045.75;344260;28;2073;-70
2022/04/20 17:08:14;;;;;;;4.95;2.97;;;;;;;;;;344260;28;1881;-70
2022/04/20 17:08:26;;;;;;;3.95;2.90;;;;;;;23.09;20.94;99039.31;345013;28;1652;-70
2022/04/20 17:08:38;;;;;;;4.80;2.80;;;;;;;23.18;20.92;99035.81;346130;28;1084;-70
2022/04/20 17:08:50;;;;;;;5.53;2.78;;;;;;;23.19;20.67;99040.09;345711;28;1593;-70
2022/04/20 17:09:03;;;;;;;5.90;2.85;;;;;;;23.07;20.74;99034.16;344685;28;1991;-70
2022/04/20 17:09:15;;;;;;;7.18;3.00;;;;;;;23.15;20.69;99038.72;346254;28;1212;-70
2022/04/20 17:09:27;;;;;;;7.05;3.10;;;;;;;23.32;21.32;99034.44;345949;28;1279;-70
2022/04/20 17:09:40;;;;;;;4.43;3.00;;;;;;;23.40;20.82;99047.84;346212;28;1070;-70
2022/04/20 17:09:52;;;;;;;5.97;3.20;;;;;;;23.37;21.16;99042.81;344812;28;1559;-70
2022/04/20 17:10:06;;;;;;;5.90;3.05;;;;;;;23.47;21.11;99038.31;345426;28;1634;-70
2022/04/20 17:10:19;;;;;;;4.60;2.72;;;;;;;23.23;20.85;99035.34;344298;28;1972;-70
2022/04/20 17:10:31;;;;;;;6.88;2.78;;;;;;;23.41;21.19;99041.53;344637;28;2258;-70
2022/04/20 17:10:43;;;;;;;6.20;2.78;;;;;;;23.47;20.39;99037.47;344875;28;2028;-70
2022/04/20 17:10:56;;;;;;;6.07;2.80;;;;;;;23.57;20.50;99043.56;344295;28;1717;-70
2022/04/20 17:11:08;;;;;;;5.70;2.88;;;;;;;23.56;19.94;99043.69;345040;28;2021;-70
2022/04/20 17:11:20;;;;;;;4.20;2.97;;;;;;;23.70;19.91;99045.84;344866;28;1058;-70
2022/04/20 17:11:32;;;;;;;4.00;3.08;;;;;;;23.48;20.28;99045.28;345542;28;1196;-70
2022/04/20 17:11:46;;;;;;;3.97;3.03;;;;;;;23.59;19.82;99040.75;345046;28;1178;-70
2022/04/20 17:11:58;;;;;;;3.75;2.90;;;;;;;23.60;20.11;99034.47;344059;28;1875;-70
2022/04/20 17:12:10;;;;;;;3.20;2.90;;;;;;;23.77;20.52;99041.66;346569;28;1591;-70
2022/04/20 17:12:23;;;;;;;4.53;2.95;;;;;;;23.83;19.73;99038.41;344538;28;1752;-70
2022/04/20 17:12:35;;;;;;;5.82;3.00;;;;;;;23.82;19.34;99041.19;344727;28;1921;-70
2022/04/20 17:12:47;;;;;;;6.30;3.05;;;;;;;23.87;19.34;99042.44;344239;28;1708;-70
2022/04/20 17:13:00;;;;;;;4.88;2.83;;;;;;;23.93;19.61;99044.47;345255;28;1798;-70
2022/04/20 17:13:12;;;;;;;3.63;2.78;;;;;;;23.92;19.87;99042.81;345492;28;1236;-70
2022/04/20 17:13:24;;;;;;;3.70;2.90;;;;;;;23.91;20.47;99038.50;344215;28;1850;-70
2022/04/20 17:13:36;;;;;;;4.25;2.70;;;;;;;24.05;19.92;99041.63;345077;28;1705;-70
2022/04/20 17:13:47;;;;;;;4.43;2.67;;;;;;;24.06;19.61;99041.44;344841;28;1031;-70
2022/04/20 17:14:03;;;;;;;3.75;2.53;;;;;;;24.74;18.83;99037.38;344275;28;1899;-70
2022/04/20 17:14:15;;;;;;;4.45;2.75;;;;;;;24.41;18.86;99036.25;344814;28;1141;-70
2022/04/20 17:14:29;;;;;;;4.90;3.08;;;;;;;24.20;19.16;99041.91;345890;28;1189;-70
2022/04/20 17:14:42;;;;;;;4.95;3.13;;;;;;;24.16;19.13;99038.72;347518;28;1131;-70
2022/04/20 17:14:54;;;;;;;3.65;2.95;;;;;;;24.27;19.24;99046.47;345913;28;1724;-70
2022/04/20 17:15:06;;;;;;;3.75;2.70;;;;;;;24.30;19.59;99040.00;345572;28;2072;-70
2022/04/20 17:15:18;;;;;;;3.97;2.80;;;;;;;23.95;18.95;99046.16;344443;28;1711;-70
2022/04/20 17:15:30;;;;;;;5.13;2.90;;;;;;;24.04;19.14;99045.25;344974;28;1755;-70
2022/04/20 17:15:43;;;;;;;4.80;3.00;;;;;;;23.92;18.47;99040.16;346323;28;1413;-70
2022/04/20 17:15:55;;;;;;;5.10;3.00;;;;;;;23.95;19.10;99051.47;344958;28;1759;-70
2022/04/20 17:16:07;;;;;;;5.35;2.90;;;;;;;24.02;19.31;99044.56;345737;28;2047;-71
2022/04/20 17:16:20;;;;;;;7.55;2.90;;;;;;;24.14;19.33;99040.69;344757;28;1182;-70
2022/04/20 17:16:32;;;;;;;7.15;2.90;;;;;;;24.21;19.40;99041.75;345542;28;1520;-71
2022/04/20 17:16:44;;;;;;;3.67;2.78;;;;;;;24.29;19.48;99047.16;346024;28;1085;-70
2022/04/20 17:16:57;;;;;;;3.70;2.72;;;;;;;24.29;19.14;99041.00;345275;28;1902;-70
2022/04/20 17:17:09;;;;;;;4.20;2.70;;;;;;;24.10;19.02;99037.50;345030;28;2063;-71
2022/04/20 17:17:21;;;;;;;3.78;2.47;;;;;;;24.20;19.17;99037.44;344693;28;1247;-70
2022/04/20 17:17:33;;;;;;;3.20;2.50;;;;;;;24.21;18.38;99041.75;346924;28;1153;-70
2022/04/20 17:17:45;;;;;;;4.13;2.70;;;;;;;24.13;18.59;99039.03;347332;28;1032;-70
2022/04/20 17:17:57;;;;;;;4.65;2.83;;;;;;;24.23;18.98;99039.78;345207;28;2073;-70
2022/04/20 17:18:09;;;;;;;4.28;2.70;;;;;;;24.20;19.00;99040.06;345963;28;1869;-69
2022/04/20 17:18:21;;;;;;;3.22;2.60;;;;;;;24.29;19.07;99039.19;344906;28;1882;-69
2022/04/20 17:18:33;;;;;;;3.40;2.63;;;;;;;24.36;19.20;99044.69;344263;28;1739;-68
2022/04/20 17:18:45;;;;;;;3.20;2.63;;;;;;;24.42;18.57;99043.25;344912;28;1074;-68
2022/04/20 17:18:58;;;;;;;3.50;2.70;;;;;;;24.35;18.39;99037.75;344359;28;1692;-69
2022/04/20 17:19:10;;;;;;;4.22;2.90;;;;;;;24.32;18.58;99044.16;345792;28;2054;-69
2022/04/20 17:19:22;;;;;;;4.38;2.90;;;;;;;24.37;18.37;99045.53;344673;28;1291;-69
2022/04/20 17:19:37;;;;;;;4.07;2.90;;;;;;;24.43;18.12;99042.28;345768;28;1225;-69
2022/04/20 17:19:49;;;;;;;4.05;2.70;;;;;;;24.48;18.24;99037.31;344765;28;1616;-69
2022/04/20 17:26:34;;;;;;;4.10;2.40;;;;;;;24.53;18.32;99040.41;345848;28;1070;-69
2022/04/20 17:26:46;;;;;;;5.35;2.63;;;;;;;24.45;18.11;99037.66;345531;28;1701;-69
2022/04/20 17:26:58;;;;;;;5.53;2.92;;;;;;;24.48;18.41;99032.84;344751;28;1078;-69
2022/04/20 17:27:11;;;;;;;3.67;2.80;;;;;;;24.46;18.01;99028.69;343591;28;1795;-70
2022/04/20 17:27:24;;;;;;;3.25;2.60;;;;;;;24.52;17.99;99030.75;344848;28;1138;-70
2022/04/20 17:27:36;;;;;;;4.15;2.45;;;;;;;24.51;17.63;99032.59;343850;28;2156;-70
2022/04/20 17:27:48;;;;;;;3.75;2.42;;;;;;;24.50;17.69;99040.69;344540;28;1830;-70
2022/04/20 17:28:01;;;;;;;3.60;2.47;;;;;;;24.51;17.56;99037.06;343754;28;2161;-70
2022/04/20 17:28:13;;;;;;;4.28;2.60;;;;;;;24.50;17.52;99030.06;345296;28;1739;-70
2022/04/20 17:28:25;;;;;;;5.88;2.70;;;;;;;24.58;17.77;99038.09;344716;28;1298;-70
2022/04/20 17:28:37;;;;;;;6.40;2.70;;;;;;;24.62;17.70;99033.31;345852;28;2018;-70
2022/04/20 17:28:49;;;;;;;4.90;2.70;;;;;;;24.65;17.79;99039.16;344639;28;1067;-70
2022/04/20 17:29:02;;;;;;;4.40;2.53;;;;;;;24.69;17.82;99029.88;344529;28;1785;-70
2022/04/20 17:29:14;;;;;;;4.15;2.60;;;;;;;24.72;17.61;99026.06;344970;28;1045;-70
2022/04/20 17:29:26;;;;;;;4.03;2.47;;;;;;;24.77;17.92;99033.56;345960;28;1380;-70
2022/04/20 17:29:47;;;;;;;5.05;2.30;;;;;;;24.80;17.89;99034.09;346171;28;1145;-70
2022/04/20 17:30:03;;;;;;;5.50;2.33;;;;;;;24.86;18.02;99035.31;345323;28;2290;-70
2022/04/20 17:30:16;;;;;;;4.82;2.38;;;;;;;24.88;17.97;99038.63;344695;28;1018;-70
2022/04/20 17:30:28;;;;;;;3.90;2.20;;;;;;;24.91;17.81;99033.00;345172;28;1239;-70
2022/04/20 17:30:40;;;;;;;5.43;2.45;;;;;;;24.92;17.75;99030.19;346091;28;2154;-70
2022/04/20 17:30:54;;;;;;;4.55;2.33;;;;;;;24.88;17.20;99034.16;344616;28;1983;-71
2022/04/20 17:31:06;;;;;;;3.05;2.30;;;;;;;24.86;17.99;99035.31;344981;28;2023;-70
2022/04/20 17:31:19;;;;;;;3.00;2.42;;;;;;;24.85;18.08;99038.94;346243;28;1023;-70
2022/04/20 17:31:31;;;;;;;3.30;2.50;;;;;;;24.90;18.10;99036.66;345883;28;1761;-70
2022/04/20 17:31:45;;;;;;;3.70;2.58;;;;;;;24.89;18.21;99034.97;346023;28;1322;-70
2022/04/20 17:31:59;;;;;;;3.85;2.50;;;;;;;24.92;17.99;99035.50;344481;28;1936;-70
2022/04/20 17:32:11;;;;;;;3.53;2.38;;;;;;;24.91;17.89;99039.16;344584;28;1930;-70
2022/04/20 17:32:23;;;;;;;2.60;2.17;;;;;;;24.95;17.92;99041.50;345881;28;1042;-70
2022/04/20 17:32:37;;;;;;;2.75;2.20;;;;;;;24.96;17.88;99029.88;344774;28;1018;-70
2022/04/20 17:32:49;;;;;;;2.88;2.15;;;;;;;24.93;17.89;99036.31;343900;28;2154;-70
2022/04/20 17:33:01;;;;;;;2.97;2.25;;;;;;;24.94;17.93;99038.00;346757;28;1593;-70
2022/04/20 17:33:13;;;;;;;2.72;2.30;;;;;;;24.95;17.96;99039.69;345274;28;1887;-71
2022/04/20 17:33:25;;;;;;;2.80;2.33;;;;;;;24.95;18.08;99039.69;345358;28;1622;-70
2022/04/20 17:33:37;;;;;;;2.92;2.22;;;;;;;24.96;18.06;99041.34;347197;28;1022;-70
2022/04/20 17:33:49;;;;;;;3.35;2.35;;;;;;;24.94;18.03;99032.69;347274;28;1141;-70
2022/04/20 17:34:02;;;;;;;3.38;2.42;;;;;;;24.93;17.85;99036.31;344931;28;1644;-70
2022/04/20 17:34:14;;;;;;;3.25;2.40;;;;;;;24.98;17.76;99041.19;345199;28;1067;-70
2022/04/20 17:34:28;;;;;;;4.78;2.30;;;;;;;25.00;17.72;99041.88;345901;28;1315;-69
2022/04/20 17:36:37;;;;;;;4.07;2.45;;;;;;;24.87;17.95;99037.81;341931;28;2139;-72
2022/04/20 17:37:04;;;;;;;4.15;2.33;;;;;;;24.81;17.69;99042.91;342500;28;1894;-72
2022/04/20 17:37:16;;;;;;;4.35;2.20;;;;;;;24.82;18.23;99037.44;343700;28;1145;-72
2022/04/20 17:37:28;;;;;;;3.72;2.30;;;;;;;24.83;18.47;99036.47;341046;28;2763;-72
2022/04/20 17:37:40;;;;;;;3.47;3.10;;;;;;;24.86;18.54;99035.31;341938;28;2346;-72
2022/04/20 17:37:52;;;;;;;4.40;3.20;;;;;;;24.86;18.48;99036.13;343581;28;1692;-72
2022/04/20 17:38:04;;;;;;;3.92;2.70;;;;;;;24.94;18.37;99038.00;343190;28;2692;-72
2022/04/20 17:38:17;;;;;;;2.78;2.38;;;;;;;24.92;18.00;99035.50;343479;28;1272;-72
2022/04/20 17:38:29;;;;;;;2.33;2.10;;;;;;;24.94;17.90;99038.00;343143;28;1295;-72
2022/04/20 17:38:41;;;;;;;2.95;2.20;;;;;;;24.88;18.39;99038.63;343345;28;1055;-72
2022/04/20 17:38:52;;;;;;;3.90;2.33;;;;;;;24.91;18.38;99038.31;342808;28;1737;-71
2022/04/20 17:39:07;;;;;;;5.82;2.40;;;;;;;24.97;17.96;99037.72;343244;28;1962;-72
2022/04/20 17:39:28;;;;;;;5.20;2.30;;;;;;;24.98;17.91;99039.38;342084;28;875;-72
2022/04/20 17:39:41;;;;;;;2.50;2.30;;;;;;;25.03;17.88;99041.53;341764;28;1323;-72
2022/04/20 17:39:56;;;;;;;2.75;2.40;;;;;;;25.05;18.13;99040.41;341891;28;1697;-72
2022/04/20 17:40:09;;;;;;;6.72;2.45;;;;;;;25.08;19.03;99044.56;342873;28;1960;-72
2022/04/20 17:40:22;;;;;;;8.60;2.70;;;;;;;25.05;18.47;99040.41;343232;28;1107;-72
2022/04/20 17:40:34;;;;;;;9.88;2.80;;;;;;;25.04;18.50;99040.56;341990;28;1328;-72
2022/04/20 17:40:46;;;;;;;5.20;2.50;;;;;;;24.97;17.97;99042.16;342037;28;1957;-72
2022/04/20 17:40:58;;;;;;;3.20;2.33;;;;;;;24.86;17.87;99041.44;342889;28;1860;-72
2022/04/20 17:41:11;;;;;;;5.93;2.20;;;;;;;24.72;17.75;99040.19;342921;28;2094;-72
2022/04/20 17:41:23;;;;;;;6.32;2.47;;;;;;;24.63;18.18;99046.47;343654;28;1194;-72
2022/04/20 17:41:36;;;;;;;3.88;2.60;;;;;;;24.59;17.71;99050.41;343459;28;1119;-72
2022/04/20 17:41:50;;;;;;;5.13;2.67;;;;;;;24.73;17.94;99046.38;343159;28;1276;-72
2022/04/20 17:42:02;;;;;;;5.80;2.38;;;;;;;24.51;17.58;99047.69;342744;28;1994;-71
2022/04/20 17:42:14;;;;;;;6.22;2.40;;;;;;;24.47;17.97;99047.13;343408;28;1985;-72
2022/04/20 17:42:27;;;;;;;4.93;2.53;;;;;;;24.53;18.03;99045.72;343174;28;1269;-72
2022/04/20 17:42:39;;;;;;;3.60;2.47;;;;;;;24.47;18.47;99047.13;343240;28;1248;-72
2022/04/20 17:42:53;;;;;;;3.50;2.40;;;;;;;24.34;18.03;99052.00;342549;28;2126;-72
2022/04/20 17:43:05;;;;;;;3.03;2.40;;;;;;;24.39;18.94;99047.06;343174;28;1714;-71
2022/04/20 17:43:17;;;;;;;3.03;2.33;;;;;;;24.47;18.82;99046.31;341885;28;1054;-72
2022/04/20 17:43:29;;;;;;;4.38;2.30;;;;;;;24.49;18.54;99049.63;341971;28;2174;-72
2022/04/20 17:43:41;;;;;;;4.32;2.28;;;;;;;24.53;18.83;99045.72;343367;28;1171;-72
2022/04/20 17:43:53;;;;;;;4.30;2.38;;;;;;;24.58;18.80;99048.72;342796;28;1701;-72
2022/04/20 17:44:06;;;;;;;2.88;2.22;;;;;;;24.60;18.47;99044.09;342796;28;1657;-72
2022/04/20 17:44:20;;;;;;;3.20;2.30;;;;;;;24.68;18.39;99041.50;344485;28;1043;-72
2022/04/20 17:44:32;;;;;;;3.20;2.30;;;;;;;24.54;18.15;99052.69;344358;28;1699;-71
2022/04/20 17:44:44;;;;;;;2.50;2.20;;;;;;;24.48;18.34;99054.09;344393;28;1446;-72
2022/04/20 17:44:56;;;;;;;2.70;2.10;;;;;;;24.44;18.03;99046.59;342805;28;1759;-71
2022/04/20 17:45:08;;;;;;;4.25;2.10;;;;;;;24.46;18.35;99050.75;344452;28;2042;-72
2022/04/20 17:45:22;;;;;;;4.72;2.30;;;;;;;24.49;18.08;99044.31;343031;28;1224;-72
2022/04/20 17:45:34;;;;;;;3.88;2.45;;;;;;;24.43;18.41;99045.78;346134;28;1319;-72
2022/04/20 17:45:48;;;;;;;4.75;2.53;;;;;;;24.44;18.84;99052.75;345852;28;1242;-72
2022/04/20 17:46:00;;;;;;;6.57;2.50;;;;;;;24.41;18.84;99053.06;344006;28;1644;-72
2022/04/20 17:46:14;;;;;;;5.55;2.40;;;;;;;24.46;18.61;99049.94;342836;28;1943;-72
2022/04/20 17:46:26;;;;;;;3.83;2.40;;;;;;;24.42;18.56;99051.22;341966;28;1307;-72
2022/04/20 17:46:40;;;;;;;4.63;2.42;;;;;;;24.41;19.03;99054.84;342024;28;1049;-72
2022/04/20 17:46:54;;;;;;;4.25;2.40;;;;;;;24.36;18.41;99043.88;341781;28;1595;-71
2022/04/20 17:47:06;;;;;;;3.17;2.47;;;;;;;24.21;18.49;99041.75;341415;28;1724;-72
2022/04/20 17:47:19;;;;;;;3.42;2.55;;;;;;;24.24;18.63;99052.06;340557;29;1251;-72
2022/04/20 17:47:31;;;;;;;3.58;2.50;;;;;;;24.30;18.86;99050.63;341422;28;1306;-72
2022/04/20 17:47:47;;;;;;;3.55;2.50;;;;;;;24.35;18.75;99052.81;342046;28;1184;-72
2022/04/20 17:47:59;;;;;;;4.93;2.30;;;;;;;24.38;18.67;99058.66;341247;28;1716;-72
2022/04/20 17:48:13;;;;;;;5.32;2.42;;;;;;;24.44;18.56;99051.91;341005;28;1796;-72
2022/04/20 17:48:25;;;;;;;7.55;2.30;;;;;;;24.41;18.36;99054.84;341762;28;2019;-72
2022/04/20 17:48:37;;;;;;;7.65;2.30;;;;;;;24.44;18.24;99054.56;341414;28;1057;-72
2022/04/20 17:48:49;;;;;;;7.30;2.30;;;;;;;24.43;18.45;99052.91;342736;28;1109;-72
2022/04/20 17:49:01;;;;;;;3.95;2.50;;;;;;;24.15;18.25;99053.00;341655;28;1856;-72
2022/04/20 17:49:14;;;;;;;5.30;2.55;;;;;;;24.22;18.69;99046.06;342150;28;1908;-72
2022/04/20 17:49:26;;;;;;;6.00;2.58;;;;;;;24.26;18.64;99046.59;342093;28;1146;-72
2022/04/20 17:49:39;;;;;;;4.80;2.50;;;;;;;24.32;18.48;99054.78;342440;28;1157;-72
2022/04/20 17:49:51;;;;;;;3.08;2.30;;;;;;;24.35;18.93;99055.47;342154;28;1043;-72
2022/04/20 17:50:04;;;;;;;2.70;2.35;;;;;;;24.36;18.65;99055.31;344286;28;1693;-72
2022/04/20 17:50:16;;;;;;;3.10;2.30;;;;;;;24.21;18.36;99055.03;342988;28;2031;-71
2022/04/20 17:50:29;;;;;;;5.85;2.35;;;;;;;24.26;18.39;99055.41;342165;28;1761;-71
2022/04/20 17:50:42;;;;;;;5.95;2.50;;;;;;;24.19;18.22;99051.72;342070;28;1810;-72
2022/04/20 17:50:54;;;;;;;2.97;2.47;;;;;;;24.26;18.48;99055.41;342162;28;1854;-71
2022/04/20 17:51:06;;;;;;;3.13;2.50;;;;;;;24.29;18.41;99049.81;341477;28;1608;-71
2022/04/20 17:51:18;;;;;;;3.50;2.42;;;;;;;24.35;18.64;99055.47;342196;28;928;-71
2022/04/20 17:51:31;;;;;;;4.40;2.33;;;;;;;24.37;18.56;99051.69;341798;28;1358;-72
2022/04/20 17:51:45;;;;;;;3.72;2.22;;;;;;;24.37;18.47;99049.03;340661;29;974;-72
2022/04/20 17:51:57;;;;;;;4.60;2.45;;;;;;;24.35;18.59;99047.50;338478;29;1771;-72
2022/04/20 17:52:09;;;;;;;6.10;2.60;;;;;;;24.26;18.05;99054.56;337896;29;1866;-72
2022/04/20 17:52:22;;;;;;;6.45;2.70;;;;;;;24.21;18.16;99052.38;337781;29;1815;-71
2022/04/20 17:52:34;;;;;;;5.32;2.70;;;;;;;24.20;18.38;99055.19;340425;29;1241;-71
2022/04/20 17:52:46;;;;;;;5.80;2.83;;;;;;;23.66;18.64;99049.78;340745;29;1277;-71
2022/04/20 17:52:58;;;;;;;6.03;2.90;;;;;;;23.73;18.62;99049.03;340040;28;1718;-71
2022/04/20 17:53:10;;;;;;;5.75;2.80;;;;;;;23.85;18.59;99047.06;340043;29;2236;-70
2022/04/20 17:53:22;;;;;;;5.35;2.80;;;;;;;23.96;18.51;99053.13;340145;29;3058;-71
2022/04/20 17:53:34;;;;;;;3.58;2.55;;;;;;;24.00;18.46;99057.97;340759;28;1648;-71
2022/04/20 17:53:46;;;;;;;2.92;2.33;;;;;;;23.96;18.41;99053.13;340818;28;2443;-72
2022/04/20 17:54:01;;;;;;;2.80;2.25;;;;;;;23.99;18.54;99052.84;341829;28;2971;-72
2022/04/20 17:54:14;;;;;;;2.90;2.30;;;;;;;24.05;18.53;99057.53;341803;28;1273;-71
2022/04/20 17:54:26;;;;;;;3.05;2.28;;;;;;;24.01;18.15;99050.88;341880;28;2090;-72
2022/04/20 17:54:38;;;;;;;3.35;2.42;;;;;;;23.68;17.98;99055.78;340275;28;2056;-72
2022/04/20 17:54:51;;;;;;;3.75;2.50;;;;;;;23.80;18.15;99051.97;343043;28;1293;-72
2022/04/20 17:55:03;;;;;;;5.28;2.50;;;;;;;23.79;17.84;99052.97;342597;28;1869;-72
2022/04/20 17:55:15;;;;;;;5.35;2.55;;;;;;;23.91;18.22;99051.75;343583;28;2416;-72
2022/04/20 17:55:30;;;;;;;5.30;2.47;;;;;;;23.97;18.41;99054.81;343482;28;1314;-72
2022/04/20 17:55:42;;;;;;;4.10;2.42;;;;;;;24.04;18.13;99053.22;343022;28;1067;-71
2022/04/20 17:55:54;;;;;;;4.05;2.60;;;;;;;24.04;18.16;99050.56;342501;28;1753;-72
2022/04/20 17:56:06;;;;;;;6.95;2.80;;;;;;;24.09;18.49;99053.59;342700;28;1780;-71
2022/04/20 17:56:19;;;;;;;7.47;2.70;;;;;;;24.11;18.11;99057.78;343335;28;1066;-72
2022/04/20 17:56:33;;;;;;;6.60;2.47;;;;;;;24.14;18.11;99046.00;344050;28;1305;-72
2022/04/20 17:56:46;;;;;;;4.30;2.30;;;;;;;24.13;18.30;99055.78;344573;28;1071;-72
2022/04/20 17:56:58;;;;;;;3.72;2.20;;;;;;;24.11;18.30;99051.63;341813;28;1666;-71
2022/04/20 17:57:10;;;;;;;2.85;2.10;;;;;;;24.04;18.04;99050.56;341371;28;1775;-72
2022/04/20 17:57:23;;;;;;;2.85;2.20;;;;;;;24.00;18.69;99054.50;341854;28;1023;-71
2022/04/20 17:57:36;;;;;;;5.93;2.45;;;;;;;23.85;18.18;99052.34;341170;28;1577;-72
2022/04/20 17:57:48;;;;;;;6.53;2.63;;;;;;;23.92;19.05;99053.44;342333;28;1794;-72
2022/04/20 17:58:00;;;;;;;3.50;2.50;;;;;;;23.89;18.59;99059.03;341286;28;1596;-72
2022/04/20 17:58:12;;;;;;;3.50;2.33;;;;;;;23.89;19.29;99059.03;342247;28;1892;-72
2022/04/20 17:58:24;;;;;;;3.97;2.50;;;;;;;23.91;19.50;99057.06;343566;28;1266;-71
2022/04/20 17:58:36;;;;;;;4.05;2.55;;;;;;;23.87;18.76;99055.69;342763;28;1188;-71
2022/04/20 17:58:49;;;;;;;4.05;2.40;;;;;;;23.83;18.63;99051.69;343289;28;1152;-71
2022/04/20 17:59:03;;;;;;;4.35;2.35;;;;;;;23.82;19.49;99054.47;343594;28;1806;-72
2022/04/20 17:59:17;;;;;;;4.43;2.53;;;;;;;23.78;18.89;99053.09;343345;28;2355;-72
2022/04/20 17:59:30;;;;;;;6.00;2.80;;;;;;;23.86;19.03;99054.00;344643;28;1423;-72
2022/04/20 17:59:46;;;;;;;5.10;2.33;;;;;;;23.92;19.04;99053.44;343426;28;1153;-72
2022/04/20 17:59:58;;;;;;;4.25;2.17;;;;;;;23.96;19.10;99055.78;343309;28;1911;-72
2022/04/20 18:00:10;;;;;;;3.28;2.20;;;;;;;24.01;19.01;99051.69;344604;28;2027;-72
2022/04/20 18:00:23;;;;;;;3.65;2.40;;;;;;;24.02;19.29;99053.34;344694;28;1014;-71
2022/04/20 18:00:35;;;;;;;6.05;2.42;;;;;;;24.01;19.29;99050.88;343132;28;1593;-72
2022/04/20 18:00:47;;;;;;;7.35;2.45;;;;;;;23.82;18.94;99057.94;342435;28;1825;-72
2022/04/20 18:00:59;;;;;;;4.93;2.17;;;;;;;23.94;19.10;99050.63;342767;28;1893;-72
2022/04/20 18:01:12;;;;;;;3.63;2.05;;;;;;;23.93;19.09;99054.28;342839;28;1966;-72
2022/04/20 18:01:26;;;;;;;3.58;2.20;;;;;;;23.92;19.44;99050.78;343440;28;1019;-71
2022/04/20 18:01:39;;;;;;;3.53;2.30;;;;;;;23.82;19.40;99052.66;343664;28;1054;-72
2022/04/20 18:01:52;;;;;;;3.83;2.22;;;;;;;23.87;19.80;99055.69;343009;28;1154;-72
2022/04/20 18:02:05;;;;;;;3.58;2.30;;;;;;;23.90;19.93;99050.09;342721;28;1697;-71
2022/04/20 18:02:18;;;;;;;3.00;2.20;;;;;;;23.93;19.71;99049.78;342822;28;1071;-72
2022/04/20 18:02:30;;;;;;;3.38;2.17;;;;;;;23.95;19.64;99051.47;342673;28;1750;-73
2022/04/20 18:02:42;;;;;;;3.85;2.03;;;;;;;23.93;19.66;99052.44;343264;28;1075;-73
2022/04/20 18:02:54;;;;;;;3.60;2.20;;;;;;;23.97;19.32;99054.81;342985;28;1661;-72
2022/04/20 18:03:06;;;;;;;2.97;2.03;;;;;;;23.99;19.45;99047.53;343004;28;1962;-72
2022/04/20 18:03:19;;;;;;;2.88;2.17;;;;;;;23.75;19.55;99048.91;341429;28;1734;-73
2022/04/20 18:03:31;;;;;;;2.80;2.15;;;;;;;23.81;19.78;99055.47;342985;28;1285;-72
2022/04/20 18:03:43;;;;;;;4.15;2.30;;;;;;;23.84;19.68;99055.97;342290;28;1982;-72
2022/04/20 18:03:56;;;;;;;4.03;2.28;;;;;;;23.79;19.46;99045.00;344182;28;1786;-72
2022/04/20 18:04:08;;;;;;;4.07;2.58;;;;;;;23.75;19.63;99048.91;343423;28;1778;-72
2022/04/20 18:04:21;;;;;;;3.63;2.70;;;;;;;23.76;19.43;99047.06;342801;28;1894;-73
2022/04/20 18:04:34;;;;;;;3.85;2.78;;;;;;;23.76;19.26;99053.22;342991;28;1333;-72
2022/04/20 18:04:46;;;;;;;3.90;2.80;;;;;;;23.67;18.99;99048.81;343348;28;1902;-72
2022/04/20 18:04:58;;;;;;;4.25;2.80;;;;;;;23.69;19.42;99052.16;342622;28;1765;-72
2022/04/20 18:05:10;;;;;;;4.80;2.60;;;;;;;23.72;19.71;99051.84;342664;28;1872;-73
2022/04/20 18:05:26;;;;;;;4.25;2.47;;;;;;;23.68;19.60;99050.47;343643;28;1206;-73
2022/04/20 18:05:44;;;;;;;3.50;2.67;;;;;;;23.51;19.21;99044.16;341892;28;1073;-72
2022/04/20 18:05:56;;;;;;;4.70;2.83;;;;;;;23.12;18.29;99045.16;341461;28;1883;-71
2022/04/20 18:06:09;;;;;;;5.05;2.80;;;;;;;23.18;19.05;99048.19;342051;28;1818;-72
2022/04/20 18:06:21;;;;;;;4.85;2.75;;;;;;;23.20;18.95;99044.44;340897;29;1011;-72
2022/04/20 18:06:33;;;;;;;4.45;2.70;;;;;;;23.26;19.08;99045.66;342944;28;1288;-72
2022/04/20 18:06:45;;;;;;;4.20;2.72;;;;;;;23.30;19.24;99042.59;343305;28;1078;-72
2022/04/20 18:06:57;;;;;;;3.85;2.67;;;;;;;23.35;18.55;99044.78;342284;28;1705;-72
2022/04/20 18:07:09;;;;;;;5.57;2.55;;;;;;;23.27;18.65;99044.69;342238;28;1735;-73
2022/04/20 18:07:21;;;;;;;6.55;2.45;;;;;;;23.33;19.10;99047.56;340538;29;1257;-72
2022/04/20 18:07:34;;;;;;;6.72;2.47;;;;;;;23.30;19.15;99047.88;341766;28;1275;-72
2022/04/20 18:08:06;;;;;;;4.10;2.70;;;;;;;23.36;19.17;99046.44;340880;28;1790;-72
2022/04/20 18:08:18;;;;;;;3.53;2.45;;;;;;;23.37;18.39;99050.78;341290;28;1761;-72
2022/04/20 18:08:30;;;;;;;3.10;2.40;;;;;;;23.41;18.66;99049.50;341467;28;1798;-71
2022/04/20 18:08:43;;;;;;;3.42;2.40;;;;;;;23.43;18.98;99047.53;341946;28;1015;-72
2022/04/20 18:08:55;;;;;;;3.80;2.30;;;;;;;23.43;18.71;99047.53;341414;28;2125;-72
2022/04/20 18:09:09;;;;;;;3.78;2.20;;;;;;;23.45;18.35;99042.09;341773;28;1663;-71
2022/04/20 18:09:22;;;;;;;4.03;2.40;;;;;;;23.45;18.44;99050.06;341421;28;1028;-71
2022/04/20 18:09:34;;;;;;;4.68;2.67;;;;;;;23.44;18.76;99043.91;343613;28;1542;-70
2022/04/20 18:09:48;;;;;;;4.95;2.75;;;;;;;23.42;18.66;99047.69;346184;28;1019;-69
2022/04/20 18:10:01;;;;;;;4.10;2.40;;;;;;;23.31;19.53;99051.38;344307;28;1704;-71
2022/04/20 18:10:14;;;;;;;3.40;2.42;;;;;;;23.29;18.99;99045.38;344026;28;1911;-71
2022/04/20 18:10:26;;;;;;;3.70;2.58;;;;;;;23.35;18.99;99044.78;344405;28;1343;-70
2022/04/20 18:10:38;;;;;;;4.63;2.60;;;;;;;23.39;19.48;99047.97;344498;28;1211;-71
2022/04/20 18:10:50;;;;;;;5.25;2.28;;;;;;;23.43;19.58;99042.22;344524;28;1075;-71
2022/04/20 18:11:03;;;;;;;4.95;2.30;;;;;;;23.49;19.75;99049.59;343828;28;1798;-70
2022/04/20 18:11:15;;;;;;;3.85;2.30;;;;;;;23.52;19.61;99051.97;344027;28;1904;-71